This is the latest recevied weather packets stored in our database for station/object OE9FWV. If no packets are shown the sender has not sent any weather packets the latest 10 day(s).
| Time | Temp. | Humidity | Pressure | Rain* | Wind** | Luminosity | Snow |
|---|---|---|---|---|---|---|---|
| 1777073869 | 10.56° C | 54% | 1018.3 hPa | 0 mm | - | - | - |
| 1777073266 | 10.56° C | 53% | 1018.3 hPa | 0 mm | - | - | - |
| 1777072064 | 10.56° C | 52% | 1018.5 hPa | 0 mm | - | - | - |
| 1777070852 | 10° C | 52% | 1018.5 hPa | 0 mm | - | - | - |
| 1777069648 | 10.56° C | 51% | 1018.4 hPa | 0 mm | - | - | - |
| 1777069041 | 11.11° C | 50% | 1018.5 hPa | 0 mm | - | - | - |
| 1777068433 | 11.67° C | 49% | 1018.4 hPa | 0 mm | - | - | - |
| 1777067833 | 12.22° C | 46% | 1018.5 hPa | 0 mm | - | - | - |
| 1777067228 | 12.78° C | 44% | 1018.5 hPa | 0 mm | - | - | - |
| 1777066014 | 14.44° C | 42% | 1018.5 hPa | 0 mm | - | - | - |
| 1777065413 | 15° C | 38% | 1018.4 hPa | 0 mm | - | - | - |
| 1777064202 | 15.56° C | 38% | 1018.3 hPa | 0 mm | - | - | - |
| 1777063603 | 15° C | 38% | 1018.3 hPa | 0 mm | - | - | - |
| 1777062993 | 13.89° C | 39% | 1018.2 hPa | 0 mm | - | - | - |
| 1777062386 | 13.89° C | 40% | 1018.2 hPa | 0 mm | - | - | - |
| 1777061783 | 13.33° C | 41% | 1018.2 hPa | 0 mm | - | - | - |
| 1777061183 | 13.33° C | 41% | 1018.2 hPa | 0 mm | - | - | - |
| 1777058165 | 15.56° C | 35% | 1018 hPa | 0 mm | - | - | - |
| 1777056954 | 16.67° C | 31% | 1017.9 hPa | 0 mm | - | - | - |
| 1777056354 | 17.22° C | 30% | 1017.9 hPa | 0 mm | - | - | - |
| 1777055748 | 17.78° C | 28% | 1017.8 hPa | 0 mm | - | - | - |
| 1777055144 | 18.33° C | 28% | 1017.7 hPa | 0 mm | - | - | - |
| 1777053942 | 19.44° C | 23% | 1017.6 hPa | 0 mm | - | - | - |
| 1777053342 | 19.44° C | 22% | 1017.6 hPa | 0 mm | - | - | - |
| 1777052742 | 20° C | 21% | 1017.5 hPa | 0 mm | - | - | - |
* Rain latest hour (hover to see other rain measurements)
** Current wind speed in m/s (hover to see current wind gust speed)